sensor_id;sensor_type;location;lat;lon;timestamp;pressure;altitude;pressure_sealevel;temperature;humidity
21730;BME280;11027;51.030;13.812;2023-05-01T00:00:50;100674.41;;;9.05;62.64
21730;BME280;11027;51.030;13.812;2023-05-01T00:03:16;100676.06;;;8.97;62.94
21730;BME280;11027;51.030;13.812;2023-05-01T00:05:45;100681.50;;;8.97;62.87
21730;BME280;11027;51.030;13.812;2023-05-01T00:08:10;100671.31;;;8.99;62.83
21730;BME280;11027;51.030;13.812;2023-05-01T00:10:36;100680.88;;;9.04;62.76
21730;BME280;11027;51.030;13.812;2023-05-01T00:13:02;100663.88;;;9.01;62.44
21730;BME280;11027;51.030;13.812;2023-05-01T00:15:27;100669.31;;;9.01;62.64
21730;BME280;11027;51.030;13.812;2023-05-01T00:17:53;100672.16;;;9.00;62.76
21730;BME280;11027;51.030;13.812;2023-05-01T00:20:18;100674.34;;;8.96;62.99
21730;BME280;11027;51.030;13.812;2023-05-01T00:22:43;100669.25;;;8.93;62.94
21730;BME280;11027;51.030;13.812;2023-05-01T00:25:09;100671.94;;;8.93;62.88
21730;BME280;11027;51.030;13.812;2023-05-01T00:27:34;100669.38;;;8.92;62.96
21730;BME280;11027;51.030;13.812;2023-05-01T00:30:00;100672.44;;;8.89;63.04
21730;BME280;11027;51.030;13.812;2023-05-01T00:32:25;100666.47;;;8.85;63.33
21730;BME280;11027;51.030;13.812;2023-05-01T00:34:51;100664.72;;;8.84;63.10
21730;BME280;11027;51.030;13.812;2023-05-01T00:37:16;100657.59;;;8.83;62.86
21730;BME280;11027;51.030;13.812;2023-05-01T00:39:41;100656.53;;;8.76;62.88
21730;BME280;11027;51.030;13.812;2023-05-01T00:42:06;100657.84;;;8.72;63.15
21730;BME280;11027;51.030;13.812;2023-05-01T00:44:32;100659.16;;;8.68;63.35
21730;BME280;11027;51.030;13.812;2023-05-01T00:46:57;100656.59;;;8.66;63.64
21730;BME280;11027;51.030;13.812;2023-05-01T00:49:25;100662.03;;;8.66;63.60
21730;BME280;11027;51.030;13.812;2023-05-01T00:51:51;100665.63;;;8.67;63.59
21730;BME280;11027;51.030;13.812;2023-05-01T00:54:19;100669.47;;;8.64;63.63
21730;BME280;11027;51.030;13.812;2023-05-01T00:56:46;100658.09;;;8.60;63.80
21730;BME280;11027;51.030;13.812;2023-05-01T00:59:13;100658.41;;;8.57;63.66
21730;BME280;11027;51.030;13.812;2023-05-01T01:01:40;100652.56;;;8.52;63.81
21730;BME280;11027;51.030;13.812;2023-05-01T01:04:05;100650.19;;;8.49;63.80
21730;BME280;11027;51.030;13.812;2023-05-01T01:09:58;100642.53;;;8.35;63.97
21730;BME280;11027;51.030;13.812;2023-05-01T01:15:17;100643.78;;;8.23;64.26
21730;BME280;11027;51.030;13.812;2023-05-01T01:17:49;100640.38;;;8.20;64.18
21730;BME280;11027;51.030;13.812;2023-05-01T01:20:40;100641.34;;;8.19;64.49
21730;BME280;11027;51.030;13.812;2023-05-01T01:23:35;100636.94;;;8.18;64.70
21730;BME280;11027;51.030;13.812;2023-05-01T01:26:26;100636.41;;;8.15;64.71
21730;BME280;11027;51.030;13.812;2023-05-01T01:29:16;100637.56;;;8.12;64.88
21730;BME280;11027;51.030;13.812;2023-05-01T01:31:56;100640.91;;;8.06;65.13
21730;BME280;11027;51.030;13.812;2023-05-01T01:34:27;100641.19;;;8.03;65.35
21730;BME280;11027;51.030;13.812;2023-05-01T01:37:29;100629.94;;;7.98;65.61
21730;BME280;11027;51.030;13.812;2023-05-01T01:40:02;100621.72;;;7.90;65.68
21730;BME280;11027;51.030;13.812;2023-05-01T01:42:39;100626.28;;;7.89;65.73
21730;BME280;11027;51.030;13.812;2023-05-01T01:45:16;100612.88;;;7.88;65.70
21730;BME280;11027;51.030;13.812;2023-05-01T01:47:43;100614.88;;;7.86;65.71
21730;BME280;11027;51.030;13.812;2023-05-01T01:50:10;100617.06;;;7.82;65.79
21730;BME280;11027;51.030;13.812;2023-05-01T01:52:37;100617.47;;;7.77;65.74
21730;BME280;11027;51.030;13.812;2023-05-01T01:55:07;100602.84;;;7.70;66.01
21730;BME280;11027;51.030;13.812;2023-05-01T01:57:35;100609.56;;;7.66;66.14
21730;BME280;11027;51.030;13.812;2023-05-01T02:00:02;100601.56;;;7.65;66.24
21730;BME280;11027;51.030;13.812;2023-05-01T02:02:30;100596.47;;;7.61;66.48
21730;BME280;11027;51.030;13.812;2023-05-01T02:04:55;100593.91;;;7.60;66.44
21730;BME280;11027;51.030;13.812;2023-05-01T02:07:22;100602.19;;;7.58;66.52
21730;BME280;11027;51.030;13.812;2023-05-01T02:09:49;100603.03;;;7.59;66.60
21730;BME280;11027;51.030;13.812;2023-05-01T02:12:17;100602.19;;;7.58;66.78
21730;BME280;11027;51.030;13.812;2023-05-01T02:14:45;100603.34;;;7.56;66.55
21730;BME280;11027;51.030;13.812;2023-05-01T02:17:13;100606.09;;;7.46;66.52
21730;BME280;11027;51.030;13.812;2023-05-01T02:19:40;100591.75;;;7.36;66.55
21730;BME280;11027;51.030;13.812;2023-05-01T02:22:08;100594.91;;;7.31;66.76
21730;BME280;11027;51.030;13.812;2023-05-01T02:24:35;100596.59;;;7.32;66.75
21730;BME280;11027;51.030;13.812;2023-05-01T02:27:23;100603.03;;;7.31;66.75
21730;BME280;11027;51.030;13.812;2023-05-01T02:29:51;100595.19;;;7.28;66.67
21730;BME280;11027;51.030;13.812;2023-05-01T02:32:17;100590.38;;;7.22;66.83
21730;BME280;11027;51.030;13.812;2023-05-01T02:34:42;100591.34;;;7.21;66.82
21730;BME280;11027;51.030;13.812;2023-05-01T02:37:09;100596.38;;;7.16;67.06
21730;BME280;11027;51.030;13.812;2023-05-01T02:39:36;100598.66;;;7.11;67.27
21730;BME280;11027;51.030;13.812;2023-05-01T02:42:02;100595.56;;;7.06;67.57
21730;BME280;11027;51.030;13.812;2023-05-01T02:44:31;100586.72;;;7.04;67.65
21730;BME280;11027;51.030;13.812;2023-05-01T02:47:02;100579.31;;;7.06;67.69
21730;BME280;11027;51.030;13.812;2023-05-01T02:49:28;100587.88;;;7.01;67.85
21730;BME280;11027;51.030;13.812;2023-05-01T02:51:55;100578.88;;;7.00;67.90
21730;BME280;11027;51.030;13.812;2023-05-01T02:54:21;100578.88;;;7.00;67.88
21730;BME280;11027;51.030;13.812;2023-05-01T02:56:47;100581.59;;;7.00;67.78
21730;BME280;11027;51.030;13.812;2023-05-01T02:59:12;100571.78;;;6.99;67.78
21730;BME280;11027;51.030;13.812;2023-05-01T03:01:37;100574.75;;;6.96;67.87
21730;BME280;11027;51.030;13.812;2023-05-01T03:04:04;100576.75;;;6.94;67.75
21730;BME280;11027;51.030;13.812;2023-05-01T03:06:29;100568.25;;;6.89;67.70
21730;BME280;11027;51.030;13.812;2023-05-01T03:08:55;100570.25;;;6.87;67.77
21730;BME280;11027;51.030;13.812;2023-05-01T03:11:20;100571.38;;;6.85;67.93
21730;BME280;11027;51.030;13.812;2023-05-01T03:13:45;100566.25;;;6.81;67.88
21730;BME280;11027;51.030;13.812;2023-05-01T03:16:11;100568.53;;;6.76;67.87
21730;BME280;11027;51.030;13.812;2023-05-01T03:18:36;100559.16;;;6.71;67.83
21730;BME280;11027;51.030;13.812;2023-05-01T03:21:02;100557.44;;;6.70;68.01
21730;BME280;11027;51.030;13.812;2023-05-01T03:23:27;100557.44;;;6.70;68.02
21730;BME280;11027;51.030;13.812;2023-05-01T03:25:53;100545.06;;;6.67;68.17
21730;BME280;11027;51.030;13.812;2023-05-01T03:28:18;100552.34;;;6.67;68.11
21730;BME280;11027;51.030;13.812;2023-05-01T03:30:45;100553.63;;;6.63;68.20
21730;BME280;11027;51.030;13.812;2023-05-01T03:33:11;100552.03;;;6.60;68.00
21730;BME280;11027;51.030;13.812;2023-05-01T03:35:36;100550.06;;;6.52;68.23
21730;BME280;11027;51.030;13.812;2023-05-01T03:38:02;100551.34;;;6.48;68.25
21730;BME280;11027;51.030;13.812;2023-05-01T03:40:27;100551.66;;;6.45;68.30
21730;BME280;11027;51.030;13.812;2023-05-01T03:42:52;100545.81;;;6.40;68.24
21730;BME280;11027;51.030;13.812;2023-05-01T03:45:17;100551.22;;;6.40;68.34
21730;BME280;11027;51.030;13.812;2023-05-01T03:47:43;100546.69;;;6.40;68.18
21730;BME280;11027;51.030;13.812;2023-05-01T03:50:08;100547.53;;;6.41;68.33
21730;BME280;11027;51.030;13.812;2023-05-01T03:52:34;100545.81;;;6.40;68.40
21730;BME280;11027;51.030;13.812;2023-05-01T03:54:59;100536.97;;;6.38;68.52
21730;BME280;11027;51.030;13.812;2023-05-01T03:57:24;100544.09;;;6.39;68.61
21730;BME280;11027;51.030;13.812;2023-05-01T03:59:50;100538.97;;;6.36;68.71
21730;BME280;11027;51.030;13.812;2023-05-01T04:02:16;100542.69;;;6.35;69.06
21730;BME280;11027;51.030;13.812;2023-05-01T04:04:42;100538.97;;;6.36;68.79
21730;BME280;11027;51.030;13.812;2023-05-01T04:07:07;100536.97;;;6.38;68.84
21730;BME280;11027;51.030;13.812;2023-05-01T04:09:33;100543.81;;;6.42;68.91
21730;BME280;11027;51.030;13.812;2023-05-01T04:11:58;100543.53;;;6.45;68.80
21730;BME280;11027;51.030;13.812;2023-05-01T04:14:23;100539.53;;;6.49;68.74
21730;BME280;11027;51.030;13.812;2023-05-01T04:16:49;100546.63;;;6.50;68.62
21730;BME280;11027;51.030;13.812;2023-05-01T04:19:15;100537.81;;;6.48;68.70
21730;BME280;11027;51.030;13.812;2023-05-01T04:21:40;100535.28;;;6.47;68.75
21730;BME280;11027;51.030;13.812;2023-05-01T04:24:06;100532.13;;;6.51;68.99
21730;BME280;11027;51.030;13.812;2023-05-01T04:26:31;100535.53;;;6.53;68.66
21730;BME280;11027;51.030;13.812;2023-05-01T04:28:57;100533.81;;;6.52;68.55
21730;BME280;11027;51.030;13.812;2023-05-01T04:31:22;100524.72;;;6.53;68.56
21730;BME280;11027;51.030;13.812;2023-05-01T04:33:47;100518.28;;;6.54;68.73
21730;BME280;11027;51.030;13.812;2023-05-01T04:36:12;100520.72;;;6.57;68.69
21730;BME280;11027;51.030;13.812;2023-05-01T04:38:38;100521.28;;;6.51;68.55
21730;BME280;11027;51.030;13.812;2023-05-01T04:41:06;100519.56;;;6.50;68.84
21730;BME280;11027;51.030;13.812;2023-05-01T04:43:31;100516.47;;;6.45;68.87
21730;BME280;11027;51.030;13.812;2023-05-01T04:45:56;100513.06;;;6.43;68.97
21730;BME280;11027;51.030;13.812;2023-05-01T04:48:22;100510.63;;;6.40;69.00
21730;BME280;11027;51.030;13.812;2023-05-01T04:50:47;100513.91;;;6.44;69.40
21730;BME280;11027;51.030;13.812;2023-05-01T04:53:13;100515.56;;;6.54;69.64
21730;BME280;11027;51.030;13.812;2023-05-01T04:55:38;100508.41;;;6.73;69.77
21730;BME280;11027;51.030;13.812;2023-05-01T04:58:03;100511.50;;;6.88;69.56
21730;BME280;11027;51.030;13.812;2023-05-01T05:00:29;100510.06;;;6.93;69.09
21730;BME280;11027;51.030;13.812;2023-05-01T05:02:55;100503.63;;;6.94;68.92
21730;BME280;11027;51.030;13.812;2023-05-01T05:05:20;100506.34;;;6.94;68.42
21730;BME280;11027;51.030;13.812;2023-05-01T05:07:45;100507.22;;;6.95;68.27
21730;BME280;11027;51.030;13.812;2023-05-01T05:10:11;100504.50;;;6.95;68.21
21730;BME280;11027;51.030;13.812;2023-05-01T05:12:36;100510.63;;;6.97;68.07
21730;BME280;11027;51.030;13.812;2023-05-01T05:15:01;100505.03;;;6.98;68.26
21730;BME280;11027;51.030;13.812;2023-05-01T05:17:27;100503.72;;;7.03;68.22
21730;BME280;11027;51.030;13.812;2023-05-01T05:19:52;100507.13;;;7.05;68.26
21730;BME280;11027;51.030;13.812;2023-05-01T05:22:17;100496.88;;;7.08;68.21
21730;BME280;11027;51.030;13.812;2023-05-01T05:24:43;100505.00;;;7.08;68.19
21730;BME280;11027;51.030;13.812;2023-05-01T05:27:09;100500.59;;;7.07;68.43
21730;BME280;11027;51.030;13.812;2023-05-01T05:29:34;100493.16;;;7.09;68.38
21730;BME280;11027;51.030;13.812;2023-05-01T05:31:59;100500.50;;;7.17;68.36
21730;BME280;11027;51.030;13.812;2023-05-01T05:34:25;100493.97;;;7.19;68.30
21730;BME280;11027;51.030;13.812;2023-05-01T05:36:50;100496.34;;;7.22;68.25
21730;BME280;11027;51.030;13.812;2023-05-01T05:39:16;100492.81;;;7.22;68.29
21730;BME280;11027;51.030;13.812;2023-05-01T05:41:41;100501.63;;;7.24;68.30
21730;BME280;11027;51.030;13.812;2023-05-01T05:44:06;100489.34;;;7.30;67.95
21730;BME280;11027;51.030;13.812;2023-05-01T05:46:31;100487.88;;;7.35;67.99
21730;BME280;11027;51.030;13.812;2023-05-01T05:48:57;100484.94;;;7.47;67.93
21730;BME280;11027;51.030;13.812;2023-05-01T05:51:22;100482.03;;;7.58;67.87
21730;BME280;11027;51.030;13.812;2023-05-01T05:53:47;100481.09;;;7.67;67.61
21730;BME280;11027;51.030;13.812;2023-05-01T05:56:12;100479.34;;;7.76;67.47
21730;BME280;11027;51.030;13.812;2023-05-01T05:58:37;100478.22;;;7.87;67.39
21730;BME280;11027;51.030;13.812;2023-05-01T06:01:03;100476.28;;;7.97;67.28
21730;BME280;11027;51.030;13.812;2023-05-01T06:03:28;100474.19;;;8.09;67.19
21730;BME280;11027;51.030;13.812;2023-05-01T06:05:53;100469.81;;;8.16;67.25
21730;BME280;11027;51.030;13.812;2023-05-01T06:08:19;100467.19;;;8.24;67.10
21730;BME280;11027;51.030;13.812;2023-05-01T06:10:44;100467.06;;;8.34;67.02
21730;BME280;11027;51.030;13.812;2023-05-01T06:13:10;100468.19;;;8.41;66.85
21730;BME280;11027;51.030;13.812;2023-05-01T06:15:36;100468.94;;;8.51;66.87
21730;BME280;11027;51.030;13.812;2023-05-01T06:18:01;100460.00;;;8.59;66.67
21730;BME280;11027;51.030;13.812;2023-05-01T06:20:27;100452.56;;;8.69;66.34
21730;BME280;11027;51.030;13.812;2023-05-01T06:22:52;100458.91;;;8.78;66.29
21730;BME280;11027;51.030;13.812;2023-05-01T06:25:17;100450.09;;;8.84;65.98
21730;BME280;11027;51.030;13.812;2023-05-01T06:27:43;100447.59;;;8.91;65.72
21730;BME280;11027;51.030;13.812;2023-05-01T06:30:08;100453.38;;;8.96;65.42
21730;BME280;11027;51.030;13.812;2023-05-01T06:32:34;100439.97;;;9.02;64.92
21730;BME280;11027;51.030;13.812;2023-05-01T06:35:00;100441.34;;;9.07;64.82
21730;BME280;11027;51.030;13.812;2023-05-01T06:37:25;100440.69;;;9.13;64.70
21730;BME280;11027;51.030;13.812;2023-05-01T06:39:50;100435.63;;;9.18;64.53
21730;BME280;11027;51.030;13.812;2023-05-01T06:42:15;100438.72;;;9.23;64.45
21730;BME280;11027;51.030;13.812;2023-05-01T06:44:41;100440.78;;;9.29;64.33
21730;BME280;11027;51.030;13.812;2023-05-01T06:47:07;100438.38;;;9.34;64.10
21730;BME280;11027;51.030;13.812;2023-05-01T06:49:32;100434.00;;;9.41;63.88
21730;BME280;11027;51.030;13.812;2023-05-01T06:51:58;100433.34;;;9.48;63.63
21730;BME280;11027;51.030;13.812;2023-05-01T06:54:23;100425.50;;;9.53;63.48
21730;BME280;11027;51.030;13.812;2023-05-01T06:56:49;100432.00;;;9.60;63.35
21730;BME280;11027;51.030;13.812;2023-05-01T06:59:14;100426.56;;;9.68;63.11
21730;BME280;11027;51.030;13.812;2023-05-01T07:01:39;100419.41;;;9.75;62.63
21730;BME280;11027;51.030;13.812;2023-05-01T07:04:05;100426.56;;;9.85;62.74
21730;BME280;11027;51.030;13.812;2023-05-01T07:06:31;100420.78;;;9.96;62.42
21730;BME280;11027;51.030;13.812;2023-05-01T07:08:56;100416.69;;;10.08;62.21
21730;BME280;11027;51.030;13.812;2023-05-01T07:11:22;100423.50;;;10.20;61.73
21730;BME280;11027;51.030;13.812;2023-05-01T07:13:47;100422.47;;;10.30;61.67
21730;BME280;11027;51.030;13.812;2023-05-01T07:16:13;100411.22;;;10.41;61.16
21730;BME280;11027;51.030;13.812;2023-05-01T07:18:38;100410.50;;;10.55;60.95
21730;BME280;11027;51.030;13.812;2023-05-01T07:21:04;100409.47;;;10.65;60.84
21730;BME280;11027;51.030;13.812;2023-05-01T07:23:29;100396.13;;;10.78;60.63
21730;BME280;11027;51.030;13.812;2023-05-01T07:25:54;100390.31;;;10.89;60.63
21730;BME280;11027;51.030;13.812;2023-05-01T07:28:20;100398.06;;;11.00;59.79
21730;BME280;11027;51.030;13.812;2023-05-01T07:30:46;100391.56;;;11.10;59.40
21730;BME280;11027;51.030;13.812;2023-05-01T07:33:11;100382.84;;;11.14;59.41
21730;BME280;11027;51.030;13.812;2023-05-01T07:35:37;100379.59;;;11.19;59.21
21730;BME280;11027;51.030;13.812;2023-05-01T07:38:02;100374.44;;;11.24;59.00
21730;BME280;11027;51.030;13.812;2023-05-01T07:40:27;100379.34;;;11.29;58.55
21730;BME280;11027;51.030;13.812;2023-05-01T07:42:54;100376.81;;;11.27;57.79
21730;BME280;11027;51.030;13.812;2023-05-01T07:45:19;100380.56;;;11.26;57.98
21730;BME280;11027;51.030;13.812;2023-05-01T07:47:44;100370.97;;;11.30;58.07
21730;BME280;11027;51.030;13.812;2023-05-01T07:50:11;100370.63;;;11.33;57.53
21730;BME280;11027;51.030;13.812;2023-05-01T07:52:37;100372.16;;;11.36;56.17
21730;BME280;11027;51.030;13.812;2023-05-01T07:55:03;100371.97;;;11.37;55.65
21730;BME280;11027;51.030;13.812;2023-05-01T07:57:29;100369.53;;;11.43;55.41
21730;BME280;11027;51.030;13.812;2023-05-01T07:59:57;100374.81;;;11.44;54.95
21730;BME280;11027;51.030;13.812;2023-05-01T08:02:22;100368.50;;;11.44;54.65
21730;BME280;11027;51.030;13.812;2023-05-01T08:04:48;100378.69;;;11.50;54.61
21730;BME280;11027;51.030;13.812;2023-05-01T08:07:13;100368.06;;;11.55;54.52
21730;BME280;11027;51.030;13.812;2023-05-01T08:09:39;100374.88;;;11.59;54.41
21730;BME280;11027;51.030;13.812;2023-05-01T08:12:04;100368.88;;;11.64;54.47
21730;BME280;11027;51.030;13.812;2023-05-01T08:14:29;100367.09;;;11.71;54.58
21730;BME280;11027;51.030;13.812;2023-05-01T08:16:55;100363.81;;;11.75;54.49
21730;BME280;11027;51.030;13.812;2023-05-01T08:19:20;100369.75;;;11.79;54.52
21730;BME280;11027;51.030;13.812;2023-05-01T08:21:45;100362.72;;;11.85;54.32
21730;BME280;11027;51.030;13.812;2023-05-01T08:24:11;100359.63;;;11.88;54.02
21730;BME280;11027;51.030;13.812;2023-05-01T08:26:36;100362.84;;;11.91;52.99
21730;BME280;11027;51.030;13.812;2023-05-01T08:29:01;100358.28;;;11.92;51.55
21730;BME280;11027;51.030;13.812;2023-05-01T08:31:27;100365.06;;;11.96;51.30
21730;BME280;11027;51.030;13.812;2023-05-01T08:33:52;100366.84;;;12.04;50.50
21730;BME280;11027;51.030;13.812;2023-05-01T08:36:17;100364.50;;;12.15;50.83
21730;BME280;11027;51.030;13.812;2023-05-01T08:38:42;100358.59;;;12.27;51.04
21730;BME280;11027;51.030;13.812;2023-05-01T08:41:08;100365.66;;;12.36;50.04
21730;BME280;11027;51.030;13.812;2023-05-01T08:43:33;100357.56;;;12.43;49.07
21730;BME280;11027;51.030;13.812;2023-05-01T08:45:59;100354.94;;;12.49;47.73
21730;BME280;11027;51.030;13.812;2023-05-01T08:48:26;100357.28;;;12.52;47.92
21730;BME280;11027;51.030;13.812;2023-05-01T08:50:54;100352.09;;;12.57;48.20
21730;BME280;11027;51.030;13.812;2023-05-01T08:53:21;100358.88;;;12.61;48.43
21730;BME280;11027;51.030;13.812;2023-05-01T08:55:47;100350.31;;;12.65;48.86
21730;BME280;11027;51.030;13.812;2023-05-01T08:58:16;100356.03;;;12.70;49.11
21730;BME280;11027;51.030;13.812;2023-05-01T09:00:42;100346.06;;;12.77;48.67
21730;BME280;11027;51.030;13.812;2023-05-01T09:03:10;100352.84;;;12.81;48.60
21730;BME280;11027;51.030;13.812;2023-05-01T09:05:36;100347.06;;;12.91;49.00
21730;BME280;11027;51.030;13.812;2023-05-01T09:08:02;100344.59;;;12.96;47.67
21730;BME280;11027;51.030;13.812;2023-05-01T09:10:28;100337.88;;;12.98;47.36
21730;BME280;11027;51.030;13.812;2023-05-01T09:12:56;100337.88;;;12.98;47.44
21730;BME280;11027;51.030;13.812;2023-05-01T09:15:25;100329.69;;;12.98;47.45
21730;BME280;11027;51.030;13.812;2023-05-01T09:17:52;100334.38;;;13.05;47.89
21730;BME280;11027;51.030;13.812;2023-05-01T09:20:18;100327.94;;;13.12;48.35
21730;BME280;11027;51.030;13.812;2023-05-01T09:22:43;100323.59;;;13.18;48.72
21730;BME280;11027;51.030;13.812;2023-05-01T09:25:09;100320.88;;;13.18;47.49
21730;BME280;11027;51.030;13.812;2023-05-01T09:27:36;100321.28;;;13.15;47.34
21730;BME280;11027;51.030;13.812;2023-05-01T09:30:01;100322.28;;;13.14;47.82
21730;BME280;11027;51.030;13.812;2023-05-01T09:32:27;100310.56;;;13.20;47.76
21730;BME280;11027;51.030;13.812;2023-05-01T09:34:54;100304.06;;;13.21;47.84
21730;BME280;11027;51.030;13.812;2023-05-01T09:37:32;100296.13;;;13.26;47.88
21730;BME280;11027;51.030;13.812;2023-05-01T09:40:11;100304.28;;;13.41;47.85
21730;BME280;11027;51.030;13.812;2023-05-01T09:42:50;100289.44;;;13.50;47.56
21730;BME280;11027;51.030;13.812;2023-05-01T09:45:16;100288.03;;;13.61;47.96
21730;BME280;11027;51.030;13.812;2023-05-01T09:47:45;100283.28;;;13.70;47.92
21730;BME280;11027;51.030;13.812;2023-05-01T09:50:28;100283.59;;;13.82;47.45
21730;BME280;11027;51.030;13.812;2023-05-01T09:52:53;100280.91;;;13.88;47.25
21730;BME280;11027;51.030;13.812;2023-05-01T09:55:19;100279.00;;;13.89;47.00
21730;BME280;11027;51.030;13.812;2023-05-01T09:57:45;100280.28;;;13.93;46.96
21730;BME280;11027;51.030;13.812;2023-05-01T10:00:12;100278.47;;;14.00;47.02
21730;BME280;11027;51.030;13.812;2023-05-01T10:02:39;100267.72;;;14.05;47.12
21730;BME280;11027;51.030;13.812;2023-05-01T10:05:05;100269.28;;;14.14;47.44
21730;BME280;11027;51.030;13.812;2023-05-01T10:07:32;100267.00;;;14.25;47.27
21730;BME280;11027;51.030;13.812;2023-05-01T10:09:57;100263.22;;;14.26;46.51
21730;BME280;11027;51.030;13.812;2023-05-01T10:12:26;100251.84;;;14.29;45.76
21730;BME280;11027;51.030;13.812;2023-05-01T10:14:53;100253.97;;;14.33;45.67
21730;BME280;11027;51.030;13.812;2023-05-01T10:17:20;100250.22;;;14.41;45.81
21730;BME280;11027;51.030;13.812;2023-05-01T10:19:46;100241.84;;;14.49;45.71
21730;BME280;11027;51.030;13.812;2023-05-01T10:22:11;100236.84;;;14.59;45.67
21730;BME280;11027;51.030;13.812;2023-05-01T10:24:36;100237.72;;;14.67;44.99
21730;BME280;11027;51.030;13.812;2023-05-01T10:27:02;100235.88;;;14.80;44.61
21730;BME280;11027;51.030;13.812;2023-05-01T10:29:30;100233.78;;;14.96;44.62
21730;BME280;11027;51.030;13.812;2023-05-01T10:31:58;100231.91;;;15.10;44.49
21730;BME280;11027;51.030;13.812;2023-05-01T10:34:25;100216.72;;;15.20;44.01
21730;BME280;11027;51.030;13.812;2023-05-01T10:36:56;100212.72;;;15.23;43.56
21730;BME280;11027;51.030;13.812;2023-05-01T10:39:35;100214.63;;;15.29;43.28
21730;BME280;11027;51.030;13.812;2023-05-01T10:42:06;100208.28;;;15.35;43.80
21730;BME280;11027;51.030;13.812;2023-05-01T10:44:38;100203.00;;;15.40;43.92
21730;BME280;11027;51.030;13.812;2023-05-01T10:50:08;100207.84;;;15.58;43.85
21730;BME280;11027;51.030;13.812;2023-05-01T10:55:50;100179.50;;;15.98;43.56
21730;BME280;11027;51.030;13.812;2023-05-01T11:03:53;100177.34;;;16.58;41.96
21730;BME280;11027;51.030;13.812;2023-05-01T11:06:18;100169.00;;;16.72;41.43
21730;BME280;11027;51.030;13.812;2023-05-01T11:08:44;100171.09;;;16.83;40.92
21730;BME280;11027;51.030;13.812;2023-05-01T11:21:57;100141.63;;;17.40;41.04
21730;BME280;11027;51.030;13.812;2023-05-01T11:24:30;100139.19;;;17.51;41.16
21730;BME280;11027;51.030;13.812;2023-05-01T11:26:56;100135.78;;;17.55;41.53
21730;BME280;11027;51.030;13.812;2023-05-01T11:29:29;100130.63;;;17.59;41.50
21730;BME280;11027;51.030;13.812;2023-05-01T11:31:55;100127.88;;;17.59;41.23
21730;BME280;11027;51.030;13.812;2023-05-01T11:34:20;100127.25;;;17.57;41.54
21730;BME280;11027;51.030;13.812;2023-05-01T11:36:47;100117.56;;;17.54;41.19
21730;BME280;11027;51.030;13.812;2023-05-01T11:39:14;100120.53;;;17.53;41.49
21730;BME280;11027;51.030;13.812;2023-05-01T11:41:41;100117.78;;;17.53;42.14
21730;BME280;11027;51.030;13.812;2023-05-01T11:44:06;100122.97;;;17.61;42.33
21730;BME280;11027;51.030;13.812;2023-05-01T11:46:32;100107.25;;;17.68;42.36
21730;BME280;11027;51.030;13.812;2023-05-01T11:49:00;100105.09;;;17.70;41.16
21730;BME280;11027;51.030;13.812;2023-05-01T11:51:27;100094.00;;;17.77;41.28
21730;BME280;11027;51.030;13.812;2023-05-01T11:54:09;100095.19;;;17.88;41.21
21730;BME280;11027;51.030;13.812;2023-05-01T11:56:36;100080.00;;;17.97;41.27
21730;BME280;11027;51.030;13.812;2023-05-01T11:59:10;100068.13;;;18.15;41.15
21730;BME280;11027;51.030;13.812;2023-05-01T12:01:37;100074.41;;;18.34;40.71
21730;BME280;11027;51.030;13.812;2023-05-01T12:04:04;100062.25;;;18.53;40.99
21730;BME280;11027;51.030;13.812;2023-05-01T12:06:40;100048.97;;;18.74;39.38
21730;BME280;11027;51.030;13.812;2023-05-01T12:09:11;100040.16;;;18.95;39.69
21730;BME280;11027;51.030;13.812;2023-05-01T12:11:39;100034.16;;;19.22;39.91
21730;BME280;11027;51.030;13.812;2023-05-01T12:14:05;100027.91;;;19.38;38.74
21730;BME280;11027;51.030;13.812;2023-05-01T12:16:30;100023.09;;;19.46;38.07
21730;BME280;11027;51.030;13.812;2023-05-01T12:18:56;100024.97;;;19.57;38.75
21730;BME280;11027;51.030;13.812;2023-05-01T12:21:22;100014.66;;;19.64;38.06
21730;BME280;11027;51.030;13.812;2023-05-01T12:23:49;100031.59;;;19.68;38.38
21730;BME280;11027;51.030;13.812;2023-05-01T12:26:21;100021.00;;;19.76;37.56
21730;BME280;11027;51.030;13.812;2023-05-01T12:29:00;100006.66;;;19.91;37.71
21730;BME280;11027;51.030;13.812;2023-05-01T12:31:27;100007.78;;;20.07;36.67
21730;BME280;11027;51.030;13.812;2023-05-01T12:34:02;100001.47;;;20.24;36.74
21730;BME280;11027;51.030;13.812;2023-05-01T12:36:31;100001.34;;;20.47;36.18
21730;BME280;11027;51.030;13.812;2023-05-01T12:41:51;100003.22;;;20.58;35.84
21730;BME280;11027;51.030;13.812;2023-05-01T12:44:25;99995.81;;;20.64;35.19
21730;BME280;11027;51.030;13.812;2023-05-01T12:46:58;99989.72;;;20.79;35.21
21730;BME280;11027;51.030;13.812;2023-05-01T12:49:24;99981.06;;;20.92;35.18
21730;BME280;11027;51.030;13.812;2023-05-01T12:51:51;99978.53;;;21.08;34.50
21730;BME280;11027;51.030;13.812;2023-05-01T12:54:26;99973.25;;;21.28;33.46
21730;BME280;11027;51.030;13.812;2023-05-01T12:56:52;99965.94;;;21.61;33.72
21730;BME280;11027;51.030;13.812;2023-05-01T12:59:25;99968.63;;;22.00;33.20
21730;BME280;11027;51.030;13.812;2023-05-01T13:02:01;99960.16;;;22.39;33.11
21730;BME280;11027;51.030;13.812;2023-05-01T13:04:27;99959.09;;;23.15;32.33
21730;BME280;11027;51.030;13.812;2023-05-01T13:06:53;99952.81;;;24.34;31.35
21730;BME280;11027;51.030;13.812;2023-05-01T13:09:21;99956.88;;;25.44;29.90
21730;BME280;11027;51.030;13.812;2023-05-01T13:11:59;99942.25;;;26.62;29.22
21730;BME280;11027;51.030;13.812;2023-05-01T13:14:28;99938.78;;;28.15;27.09
21730;BME280;11027;51.030;13.812;2023-05-01T13:16:54;99932.88;;;29.43;24.73